Time;durP1;ratioP1;P1;durP2;ratioP2;P2;SDS_P1;SDS_P2;PMS_P1;PMS_P2;Temp;Humidity;BMP_temperature;BMP_pressure;BME280_temperature;BME280_humidity;BME280_pressure;Samples;Min_cycle;Max_cycle;Signal;HPM_P1;HPM_P2
2023/05/19 00:01:12;;;;;;;2.97;1.83;;;;;;;19.55;43.93;102970.72;5123157;27;20042;-68
2023/05/19 00:03:51;;;;;;;2.83;1.80;;;;;;;19.55;43.87;102968.91;5120541;27;20042;-69
2023/05/19 00:06:21;;;;;;;2.50;1.83;;;;;;;19.53;43.90;102960.22;5121479;27;20088;-69
2023/05/19 00:08:48;;;;;;;2.80;1.50;;;;;;;19.54;43.97;102964.59;5119924;27;20506;-69
2023/05/19 00:11:14;;;;;;;2.58;1.50;;;;;;;19.52;43.94;102950.63;5124920;27;20082;-69
2023/05/19 00:13:40;;;;;;;2.35;1.40;;;;;;;19.49;43.95;102958.81;5123860;27;20039;-69
2023/05/19 00:16:06;;;;;;;2.30;1.88;;;;;;;19.48;43.97;102958.94;5121717;27;20035;-68
2023/05/19 00:18:32;;;;;;;2.10;1.70;;;;;;;19.48;44.08;102954.50;5119039;27;20043;-69
2023/05/19 00:20:57;;;;;;;3.13;1.90;;;;;;;19.49;43.89;102955.34;5121240;27;20027;-69
2023/05/19 00:23:23;;;;;;;2.00;1.67;;;;;;;19.52;44.05;102950.63;5120491;27;21007;-68
2023/05/19 00:25:48;;;;;;;2.03;1.42;;;;;;;19.48;44.07;102945.72;5119559;27;20092;-69
2023/05/19 00:28:14;;;;;;;1.60;1.50;;;;;;;19.51;43.95;102942.81;5121390;27;20044;-69
2023/05/19 00:30:40;;;;;;;2.17;1.80;;;;;;;19.50;43.98;102941.16;5121589;27;20625;-69
2023/05/19 00:33:05;;;;;;;2.25;1.83;;;;;;;19.51;44.04;102934.91;5121303;27;20048;-68
2023/05/19 00:35:31;;;;;;;2.88;1.90;;;;;;;19.50;43.95;102934.06;5124427;27;20035;-68
2023/05/19 00:37:56;;;;;;;2.15;2.00;;;;;;;19.51;43.95;102933.09;5122900;27;20043;-68
2023/05/19 00:40:23;;;;;;;2.30;1.50;;;;;;;19.51;43.94;102932.25;5119310;27;20039;-69
2023/05/19 00:42:48;;;;;;;1.67;1.30;;;;;;;19.48;43.95;102933.34;5120195;27;20527;-69
2023/05/19 00:45:14;;;;;;;2.55;1.50;;;;;;;19.49;44.00;102931.56;5120055;27;20043;-68
2023/05/19 00:47:39;;;;;;;2.40;1.48;;;;;;;19.47;43.91;102931.69;5119443;27;20056;-70
2023/05/19 00:50:05;;;;;;;2.58;1.35;;;;;;;19.46;44.07;102930.00;5120043;27;20038;-68
2023/05/19 00:52:31;;;;;;;2.45;1.95;;;;;;;19.44;44.14;102931.94;5115251;27;20366;-68
2023/05/19 00:54:56;;;;;;;1.60;1.50;;;;;;;19.47;44.08;102929.03;5123924;27;20060;-68
2023/05/19 00:57:22;;;;;;;2.22;1.77;;;;;;;19.43;44.09;102932.06;5121190;27;20043;-68
2023/05/19 00:59:48;;;;;;;4.05;1.65;;;;;;;19.45;44.11;102930.13;5125483;27;20031;-69
2023/05/19 01:02:13;;;;;;;1.88;1.25;;;;;;;19.43;44.09;102924.97;5124711;27;20035;-70
2023/05/19 01:04:40;;;;;;;3.10;2.05;;;;;;;19.44;44.02;102921.38;5124516;27;20031;-69
2023/05/19 01:07:06;;;;;;;1.90;1.55;;;;;;;19.46;44.01;102926.53;5119898;27;20043;-70
2023/05/19 01:09:32;;;;;;;2.00;1.80;;;;;;;19.46;44.08;102924.72;5119047;27;20130;-70
2023/05/19 01:12:00;;;;;;;2.40;1.58;;;;;;;19.43;44.00;102911.78;5123524;27;20035;-68
2023/05/19 01:14:27;;;;;;;3.65;1.48;;;;;;;19.45;44.01;102914.28;5125973;27;20035;-70
2023/05/19 01:16:52;;;;;;;2.72;1.73;;;;;;;19.45;44.08;102916.91;5123035;27;20150;-70
2023/05/19 01:19:48;;;;;;;1.60;1.45;;;;;;;19.44;44.11;102912.59;5123166;27;20134;-69
2023/05/19 01:22:32;;;;;;;1.67;1.50;;;;;;;19.44;44.08;102920.53;5115191;27;20031;-69
2023/05/19 01:25:20;;;;;;;3.17;1.52;;;;;;;19.42;44.16;102917.19;5112386;27;20027;-68
2023/05/19 01:28:09;;;;;;;2.00;1.40;;;;;;;19.41;44.13;102915.50;5114128;27;20035;-71
2023/05/19 01:30:50;;;;;;;2.47;1.52;;;;;;;19.39;44.20;102920.91;5118538;27;20414;-70
2023/05/19 01:33:16;;;;;;;1.52;1.42;;;;;;;19.41;44.18;102916.34;5118577;27;20169;-70
2023/05/19 01:35:43;;;;;;;3.20;1.67;;;;;;;19.42;44.04;102909.25;5123927;27;20031;-69
2023/05/19 01:38:10;;;;;;;3.45;1.45;;;;;;;19.39;44.14;102907.72;5121926;27;20039;-69
2023/05/19 01:40:38;;;;;;;2.03;1.45;;;;;;;19.39;44.23;102912.13;5103164;27;20039;-69
2023/05/19 01:43:04;;;;;;;2.40;1.65;;;;;;;19.39;44.07;102912.13;5122157;27;20066;-69
2023/05/19 01:45:33;;;;;;;1.75;1.60;;;;;;;19.37;44.14;102906.97;5114330;27;20123;-68
2023/05/19 01:48:01;;;;;;;2.35;1.67;;;;;;;19.38;44.08;102911.28;5120511;27;20043;-68
2023/05/19 01:50:28;;;;;;;3.33;1.60;;;;;;;19.34;44.30;102907.22;5119521;27;20053;-69
2023/05/19 01:52:54;;;;;;;2.03;1.60;;;;;;;19.36;44.21;102905.28;5121378;27;20135;-69
2023/05/19 01:55:21;;;;;;;1.52;1.40;;;;;;;19.36;44.09;102904.47;5119113;27;20027;-69
2023/05/19 01:57:56;;;;;;;2.17;1.45;;;;;;;19.37;44.23;102906.13;5122006;27;20092;-70
2023/05/19 02:00:53;;;;;;;4.05;1.83;;;;;;;19.35;44.21;102897.50;5117111;27;20023;-69
2023/05/19 02:03:52;;;;;;;2.28;1.40;;;;;;;19.31;44.26;102903.03;5120183;27;20066;-70
2023/05/19 02:07:04;;;;;;;1.90;1.55;;;;;;;19.33;44.24;102892.34;5115276;27;20104;-69
2023/05/19 02:09:39;;;;;;;1.70;1.30;;;;;;;19.30;44.20;102879.41;5107838;27;20043;-68
2023/05/19 02:12:11;;;;;;;2.58;1.73;;;;;;;19.33;44.07;102894.97;5121748;28;20043;-69
2023/05/19 02:15:03;;;;;;;3.70;1.63;;;;;;;19.33;44.19;102884.41;5122405;27;20023;-70
2023/05/19 02:17:40;;;;;;;1.88;1.48;;;;;;;19.33;44.16;102885.25;5132897;27;20066;-70
2023/05/19 02:20:08;;;;;;;2.83;1.73;;;;;;;19.32;44.17;102886.22;5117611;28;20035;-70
2023/05/19 02:22:34;;;;;;;2.00;1.42;;;;;;;19.32;44.36;102885.38;5120524;28;21806;-70
2023/05/19 02:24:59;;;;;;;2.78;1.48;;;;;;;19.31;44.32;102889.84;5118373;28;20070;-69
2023/05/19 02:27:25;;;;;;;1.90;1.42;;;;;;;19.28;44.30;102884.81;5121349;28;20032;-69
2023/05/19 02:29:51;;;;;;;2.03;1.50;;;;;;;19.29;44.39;102878.56;5118719;27;20653;-70
2023/05/19 02:32:17;;;;;;;2.70;1.33;;;;;;;19.26;44.23;102873.53;5124645;27;20517;-69
2023/05/19 02:34:44;;;;;;;1.92;1.50;;;;;;;19.27;44.31;102877.00;5120870;27;20039;-69
2023/05/19 02:37:15;;;;;;;1.40;1.30;;;;;;;19.27;44.36;102874.38;5119308;27;20039;-69
2023/05/19 02:39:42;;;;;;;3.65;1.50;;;;;;;19.23;44.28;102872.94;5122781;27;20050;-69
2023/05/19 02:42:07;;;;;;;3.20;1.58;;;;;;;19.26;44.29;102870.06;5124720;27;20035;-68
2023/05/19 02:44:33;;;;;;;3.72;1.77;;;;;;;19.27;44.27;102872.56;5122928;27;20048;-70
2023/05/19 02:46:58;;;;;;;2.35;1.42;;;;;;;19.27;44.34;102863.81;5121871;27;20158;-69
2023/05/19 02:49:24;;;;;;;2.75;1.50;;;;;;;19.29;44.36;102868.00;5120926;27;20428;-68
2023/05/19 02:51:49;;;;;;;3.22;1.60;;;;;;;19.28;44.18;102861.03;5125513;27;20035;-69
2023/05/19 02:54:15;;;;;;;2.42;1.25;;;;;;;19.28;44.22;102863.66;5125501;27;20058;-70
2023/05/19 02:56:41;;;;;;;1.60;1.42;;;;;;;19.27;44.28;102866.44;5123492;27;20039;-69
2023/05/19 02:59:06;;;;;;;4.07;1.60;;;;;;;19.26;44.24;102867.41;5111657;27;20035;-69
2023/05/19 03:01:32;;;;;;;1.30;1.15;;;;;;;19.25;44.31;102860.44;5127835;27;20043;-69
2023/05/19 03:03:58;;;;;;;1.42;1.30;;;;;;;19.25;44.30;102863.94;5128620;27;20055;-68
2023/05/19 03:06:23;;;;;;;2.15;1.67;;;;;;;19.23;44.36;102857.94;5128431;27;20046;-69
2023/05/19 03:08:49;;;;;;;1.80;1.45;;;;;;;19.23;44.38;102860.59;5119359;27;20060;-70
2023/05/19 03:11:15;;;;;;;1.65;1.25;;;;;;;19.23;44.24;102860.59;5121259;27;20067;-70
2023/05/19 03:13:41;;;;;;;2.28;1.77;;;;;;;19.21;44.52;102862.50;5128016;27;20132;-70
2023/05/19 03:16:07;;;;;;;2.20;1.60;;;;;;;19.17;44.34;102863.72;5127341;27;20042;-70
2023/05/19 03:18:33;;;;;;;1.58;1.48;;;;;;;19.21;44.33;102866.94;5106681;27;20023;-69
2023/05/19 03:20:59;;;;;;;2.97;1.30;;;;;;;19.20;44.43;102863.44;5120226;27;20095;-70
2023/05/19 03:23:25;;;;;;;2.10;1.10;;;;;;;19.21;44.27;102862.50;5117714;27;20047;-69
2023/05/19 03:25:53;;;;;;;2.80;1.42;;;;;;;19.21;44.43;102865.16;5122762;27;20483;-70
2023/05/19 03:28:18;;;;;;;1.73;1.40;;;;;;;19.20;44.39;102870.53;5123401;27;20367;-69
2023/05/19 03:30:44;;;;;;;2.63;1.30;;;;;;;19.22;44.34;102869.47;5121241;27;20032;-69
2023/05/19 03:33:15;;;;;;;2.42;1.42;;;;;;;19.21;44.23;102872.22;5122027;27;20132;-70
2023/05/19 03:35:43;;;;;;;1.17;1.08;;;;;;;19.19;44.25;102867.06;5122409;27;20077;-69
2023/05/19 03:38:09;;;;;;;2.00;1.33;;;;;;;19.15;44.36;102859.53;5119823;27;20500;-69
2023/05/19 03:40:35;;;;;;;2.00;1.52;;;;;;;19.20;44.24;102866.09;5122921;27;20082;-68
2023/05/19 03:43:05;;;;;;;1.90;1.55;;;;;;;19.19;44.32;102872.34;5119557;27;20392;-69
2023/05/19 03:45:34;;;;;;;4.00;1.73;;;;;;;19.19;44.25;102874.97;5118639;27;20031;-69
2023/05/19 03:48:10;;;;;;;1.98;1.20;;;;;;;19.17;44.43;102866.34;5120166;27;20380;-69
2023/05/19 03:50:54;;;;;;;1.90;1.30;;;;;;;19.17;44.45;102868.16;5118540;27;20058;-69
2023/05/19 03:53:25;;;;;;;2.15;1.30;;;;;;;19.20;44.31;102857.34;5121143;27;20048;-69
2023/05/19 03:55:51;;;;;;;1.45;1.23;;;;;;;19.19;44.29;102868.84;5118707;27;20070;-69
2023/05/19 03:58:17;;;;;;;2.38;1.23;;;;;;;19.19;44.29;102871.50;5126984;27;20067;-69
2023/05/19 04:00:43;;;;;;;3.60;1.77;;;;;;;19.17;44.19;102873.44;5123257;27;20035;-69
2023/05/19 04:03:08;;;;;;;1.85;1.45;;;;;;;19.18;44.28;102868.03;5099775;28;20051;-69
2023/05/19 04:05:34;;;;;;;2.38;1.45;;;;;;;19.16;44.35;102869.13;5126264;27;20043;-69
2023/05/19 04:07:59;;;;;;;1.80;1.48;;;;;;;19.15;44.34;102875.38;5107358;27;20039;-69
2023/05/19 04:10:25;;;;;;;2.63;1.60;;;;;;;19.15;44.42;102873.56;5128050;27;20050;-70
2023/05/19 04:12:53;;;;;;;3.58;1.42;;;;;;;19.17;44.34;102873.44;5119598;27;20027;-69
2023/05/19 04:15:18;;;;;;;4.97;1.60;;;;;;;19.19;44.31;102874.16;5121143;27;20676;-69
2023/05/19 04:17:44;;;;;;;3.20;1.50;;;;;;;19.18;44.28;102875.94;5102064;27;20043;-70
2023/05/19 04:20:11;;;;;;;1.27;1.17;;;;;;;19.13;44.42;102880.78;5126619;27;20705;-70
2023/05/19 04:22:36;;;;;;;2.42;1.60;;;;;;;19.16;44.30;102877.88;5123820;27;20039;-70
2023/05/19 04:25:03;;;;;;;2.47;1.42;;;;;;;19.06;44.39;102868.22;5126082;27;20043;-69
2023/05/19 04:27:30;;;;;;;2.97;1.90;;;;;;;19.12;44.39;102881.75;5123558;27;20031;-69
2023/05/19 04:29:57;;;;;;;2.20;1.60;;;;;;;19.12;44.38;102881.75;5117527;27;20031;-69
2023/05/19 04:32:22;;;;;;;2.83;1.27;;;;;;;19.14;44.29;102884.25;5135534;27;20104;-69
2023/05/19 04:34:49;;;;;;;1.40;1.30;;;;;;;19.14;44.52;102881.63;5121344;27;20066;-68
2023/05/19 04:37:20;;;;;;;2.60;1.52;;;;;;;19.13;44.35;102878.13;5122259;27;20081;-69
2023/05/19 04:39:47;;;;;;;3.35;1.60;;;;;;;19.12;44.47;102886.19;5119141;27;20519;-69
2023/05/19 04:42:12;;;;;;;2.72;1.58;;;;;;;19.13;44.30;102883.41;5122890;27;20050;-69
2023/05/19 04:44:38;;;;;;;2.10;1.40;;;;;;;19.16;44.27;102877.03;5120200;27;20043;-69
2023/05/19 04:47:07;;;;;;;1.27;1.23;;;;;;;19.15;44.28;102876.22;5119786;27;20077;-70
2023/05/19 04:49:37;;;;;;;3.03;1.65;;;;;;;19.13;44.29;102877.28;5116921;27;20035;-68
2023/05/19 04:52:09;;;;;;;2.75;1.65;;;;;;;19.12;44.40;102872.97;5137126;27;20036;-69
2023/05/19 04:54:36;;;;;;;2.22;1.20;;;;;;;19.12;44.30;102870.34;5125863;27;20083;-69
2023/05/19 04:57:03;;;;;;;3.42;1.33;;;;;;;19.12;44.34;102878.25;5125913;27;20377;-69
2023/05/19 04:59:30;;;;;;;3.28;1.60;;;;;;;19.13;44.40;102882.56;5123692;27;20039;-69
2023/05/19 05:01:56;;;;;;;2.35;1.75;;;;;;;19.16;44.27;102877.03;5123900;27;21023;-69
2023/05/19 05:04:23;;;;;;;1.50;1.40;;;;;;;19.13;44.40;102879.94;5126248;27;20031;-69
2023/05/19 05:06:49;;;;;;;1.38;1.17;;;;;;;19.14;44.31;102877.16;5141284;27;20042;-70
2023/05/19 05:09:17;;;;;;;2.42;1.50;;;;;;;19.11;44.31;102876.59;5121368;27;20062;-69
2023/05/19 05:11:43;;;;;;;2.80;1.10;;;;;;;19.15;44.26;102880.66;5117728;27;20039;-68
2023/05/19 05:14:10;;;;;;;4.45;2.10;;;;;;;19.14;44.27;102884.25;5122651;27;20037;-70
2023/05/19 05:16:35;;;;;;;2.08;1.40;;;;;;;19.14;44.23;102885.09;5123494;27;20035;-70
2023/05/19 05:19:02;;;;;;;2.55;1.25;;;;;;;19.12;44.37;102884.38;5117639;27;20078;-68
2023/05/19 05:21:28;;;;;;;2.42;1.38;;;;;;;19.13;44.38;102886.06;5104488;27;20039;-69
2023/05/19 05:23:54;;;;;;;1.38;1.27;;;;;;;19.14;44.24;102886.91;5121292;27;20042;-69
2023/05/19 05:26:28;;;;;;;2.40;1.40;;;;;;;19.14;44.35;102885.09;5120250;27;20024;-69
2023/05/19 05:28:54;;;;;;;2.20;1.40;;;;;;;19.13;44.23;102883.41;5119315;27;20041;-69
2023/05/19 05:31:20;;;;;;;1.67;1.20;;;;;;;19.14;44.18;102879.81;5122789;27;20039;-68
2023/05/19 05:33:46;;;;;;;1.48;1.38;;;;;;;19.15;44.20;102883.28;5120592;27;20038;-69
2023/05/19 05:36:13;;;;;;;1.63;1.48;;;;;;;19.14;44.24;102887.72;5119415;27;20028;-68
2023/05/19 05:38:39;;;;;;;1.85;1.52;;;;;;;19.14;44.26;102890.38;5117730;27;20051;-69
2023/05/19 05:41:04;;;;;;;1.25;1.10;;;;;;;19.17;44.25;102889.28;5119327;27;20039;-69
2023/05/19 05:43:31;;;;;;;2.47;1.17;;;;;;;19.17;44.25;102890.13;5118798;27;20038;-69
2023/05/19 05:46:00;;;;;;;1.90;1.40;;;;;;;19.17;44.22;102887.47;5115728;27;20432;-70
2023/05/19 05:48:26;;;;;;;1.48;1.38;;;;;;;19.17;44.13;102884.00;5121332;27;20035;-69
2023/05/19 05:50:53;;;;;;;2.22;1.30;;;;;;;19.15;44.13;102884.13;5121313;27;20039;-70
2023/05/19 05:53:25;;;;;;;2.55;1.40;;;;;;;19.19;44.15;102884.72;5118216;27;20043;-69
2023/05/19 05:55:53;;;;;;;4.63;1.73;;;;;;;19.19;44.20;102884.72;5116028;27;20033;-69
2023/05/19 05:58:20;;;;;;;1.80;1.40;;;;;;;19.14;44.20;102876.34;5122134;27;20036;-69
2023/05/19 06:00:48;;;;;;;2.58;1.52;;;;;;;19.18;44.16;102885.69;5119824;27;20623;-69
2023/05/19 06:03:13;;;;;;;2.63;1.52;;;;;;;19.18;44.23;102891.78;5103159;28;20031;-69
2023/05/19 06:05:39;;;;;;;3.38;1.65;;;;;;;19.19;44.18;102888.19;5112613;28;20034;-69
2023/05/19 06:08:05;;;;;;;2.65;1.75;;;;;;;19.18;44.15;102897.06;5120489;27;20047;-70
2023/05/19 06:10:31;;;;;;;1.40;1.30;;;;;;;19.20;44.17;102897.78;5123738;28;20031;-67
2023/05/19 06:12:57;;;;;;;1.63;1.40;;;;;;;19.18;44.18;102894.44;5115325;28;20035;-67
2023/05/19 06:15:24;;;;;;;2.58;1.20;;;;;;;19.17;44.24;102902.50;5117582;28;20028;-67
2023/05/19 06:18:19;;;;;;;1.60;1.35;;;;;;;19.19;44.15;102905.84;5115288;28;20055;-67
2023/05/19 06:20:46;;;;;;;5.18;1.95;;;;;;;19.21;44.10;102906.53;5117485;28;20138;-68
2023/05/19 06:23:12;;;;;;;2.60;1.25;;;;;;;19.21;44.13;102904.78;5123488;28;20040;-67
2023/05/19 06:25:37;;;;;;;2.03;1.38;;;;;;;19.20;44.08;102910.16;5116682;28;20711;-67
2023/05/19 06:28:04;;;;;;;3.13;1.70;;;;;;;19.21;44.27;102911.84;5118947;28;21000;-67
2023/05/19 06:30:29;;;;;;;2.63;1.30;;;;;;;19.21;44.09;102912.69;5120708;28;20035;-69
2023/05/19 06:33:06;;;;;;;1.83;1.52;;;;;;;19.25;44.12;102918.56;5115856;28;20046;-68
2023/05/19 06:35:32;;;;;;;4.00;1.75;;;;;;;19.27;44.15;102914.00;5110731;28;20043;-67
2023/05/19 06:37:57;;;;;;;2.75;1.70;;;;;;;19.30;44.09;102901.38;5115413;28;20043;-69
2023/05/19 06:40:23;;;;;;;2.33;1.40;;;;;;;19.38;43.90;102906.00;5120228;28;20035;-68
2023/05/19 06:42:48;;;;;;;2.55;1.75;;;;;;;19.41;43.77;102900.50;5114850;28;20035;-68
2023/05/19 06:45:22;;;;;;;2.38;1.58;;;;;;;19.50;43.91;102904.16;5117603;28;20038;-68
2023/05/19 06:47:49;;;;;;;2.47;1.40;;;;;;;19.57;43.62;102900.09;5123780;27;20119;-69
2023/05/19 06:50:15;;;;;;;2.65;1.58;;;;;;;19.61;43.65;102898.88;5122860;28;20035;-70
2023/05/19 06:52:43;;;;;;;3.53;2.05;;;;;;;19.66;43.60;102907.25;5120409;28;20115;-68
2023/05/19 06:55:08;;;;;;;2.95;1.75;;;;;;;19.72;43.50;102903.22;5116175;28;20042;-68
2023/05/19 06:57:36;;;;;;;4.50;1.58;;;;;;;19.75;43.42;102900.31;5121143;28;20100;-68
2023/05/19 07:00:03;;;;;;;1.77;1.42;;;;;;;19.80;43.44;102904.28;5117697;28;20039;-68
2023/05/19 07:02:29;;;;;;;3.47;1.58;;;;;;;19.84;43.42;102904.84;5114640;28;20063;-68
2023/05/19 07:04:56;;;;;;;2.75;1.45;;;;;;;19.86;43.34;102908.19;5114282;28;21322;-68
2023/05/19 07:07:21;;;;;;;3.47;1.70;;;;;;;19.90;43.25;102910.44;5116352;28;20042;-67
2023/05/19 07:09:47;;;;;;;1.60;1.30;;;;;;;19.94;43.31;102903.13;5122007;28;20126;-69
2023/05/19 07:12:13;;;;;;;2.85;1.70;;;;;;;19.97;43.33;102913.44;5115355;28;20039;-69
2023/05/19 07:14:39;;;;;;;3.28;1.40;;;;;;;20.00;43.19;102907.03;5118516;27;20035;-67
2023/05/19 07:17:05;;;;;;;2.08;1.88;;;;;;;20.02;43.22;102907.75;5119721;27;20035;-69
2023/05/19 07:19:32;;;;;;;3.65;1.60;;;;;;;20.06;43.17;102911.78;5120693;27;20046;-68
2023/05/19 07:21:58;;;;;;;1.70;1.42;;;;;;;20.08;43.30;102905.41;5128717;27;20039;-68
2023/05/19 07:24:24;;;;;;;1.85;1.58;;;;;;;20.11;43.19;102909.63;5125039;27;20114;-69
2023/05/19 07:26:49;;;;;;;3.63;1.70;;;;;;;20.07;42.90;102897.59;5118379;27;20044;-67
2023/05/19 07:29:15;;;;;;;1.92;1.55;;;;;;;20.17;43.13;102920.50;5128706;27;20069;-68
2023/05/19 07:31:40;;;;;;;1.77;1.42;;;;;;;20.19;42.98;102905.34;5123566;27;20035;-70
2023/05/19 07:34:06;;;;;;;2.28;1.65;;;;;;;20.24;42.99;102907.56;5127229;27;20104;-69
2023/05/19 07:36:32;;;;;;;2.63;1.33;;;;;;;20.25;42.95;102903.13;5126889;27;20031;-68
2023/05/19 07:38:58;;;;;;;1.92;1.70;;;;;;;20.27;43.18;102904.66;5123207;27;20035;-68
2023/05/19 07:41:24;;;;;;;2.42;1.20;;;;;;;20.29;43.05;102909.81;5121078;27;20312;-68
2023/05/19 07:43:49;;;;;;;1.63;1.52;;;;;;;20.33;42.97;102905.97;5123808;27;20062;-68
2023/05/19 07:46:15;;;;;;;3.47;1.50;;;;;;;20.34;42.95;102905.81;5119655;27;20047;-68
2023/05/19 07:48:40;;;;;;;3.03;1.50;;;;;;;20.38;43.00;102903.75;5122203;27;20092;-68
2023/05/19 07:51:08;;;;;;;5.32;1.90;;;;;;;20.39;42.97;102906.25;5120809;27;20039;-68
2023/05/19 07:53:35;;;;;;;1.98;1.60;;;;;;;20.42;42.78;102902.53;5121250;27;20630;-69
2023/05/19 07:56:01;;;;;;;3.28;2.00;;;;;;;20.45;43.02;102905.75;5122683;27;20043;-70
2023/05/19 07:58:27;;;;;;;2.42;1.42;;;;;;;20.47;42.96;102903.00;5124509;27;20041;-69
2023/05/19 08:00:52;;;;;;;1.70;1.60;;;;;;;20.48;42.69;102894.91;5122287;27;20039;-69
2023/05/19 08:03:18;;;;;;;2.25;1.60;;;;;;;20.54;42.82;102898.81;5118388;27;20225;-70
2023/05/19 08:05:45;;;;;;;3.60;1.42;;;;;;;20.52;42.77;102893.66;5125096;27;20039;-71
2023/05/19 08:08:10;;;;;;;2.63;1.42;;;;;;;20.50;42.86;102898.25;5123963;27;20096;-71
2023/05/19 08:10:36;;;;;;;2.80;1.65;;;;;;;20.50;42.99;102887.66;5128804;27;20055;-71
2023/05/19 08:13:01;;;;;;;2.00;1.60;;;;;;;20.53;42.69;102894.50;5119219;27;20049;-72
2023/05/19 08:15:27;;;;;;;2.25;1.75;;;;;;;20.60;42.57;102881.56;5133647;27;20080;-72
2023/05/19 08:17:52;;;;;;;2.38;1.80;;;;;;;20.60;42.72;102887.69;5128885;27;20084;-71
2023/05/19 08:20:19;;;;;;;3.15;1.67;;;;;;;20.60;42.62;102876.25;5132111;27;20043;-71
2023/05/19 08:22:44;;;;;;;5.05;1.80;;;;;;;20.61;42.58;102884.06;5126495;27;20137;-72
2023/05/19 08:25:10;;;;;;;2.40;1.67;;;;;;;20.62;42.64;102880.44;5130338;27;20031;-72
2023/05/19 08:27:35;;;;;;;2.00;1.83;;;;;;;20.61;42.58;102878.78;5115643;27;20039;-72
2023/05/19 08:30:01;;;;;;;2.97;1.80;;;;;;;20.62;42.63;102871.66;5127044;27;20955;-71
2023/05/19 08:32:26;;;;;;;1.60;1.50;;;;;;;20.63;42.79;102876.81;5128179;27;20480;-72
2023/05/19 08:34:52;;;;;;;4.78;2.20;;;;;;;20.58;42.68;102870.25;5122790;27;20035;-71
2023/05/19 08:37:17;;;;;;;2.78;1.73;;;;;;;20.65;42.58;102871.41;5123884;27;20035;-73
2023/05/19 08:39:43;;;;;;;1.38;1.27;;;;;;;20.66;42.72;102871.28;5115278;27;20024;-71
2023/05/19 08:42:09;;;;;;;2.30;1.90;;;;;;;20.68;42.54;102871.13;5119794;27;20042;-73
2023/05/19 08:44:36;;;;;;;2.10;1.67;;;;;;;20.69;42.71;102864.88;5126095;27;20055;-73
2023/05/19 08:47:11;;;;;;;2.72;1.70;;;;;;;20.69;42.34;102865.72;5122659;27;20059;-72
2023/05/19 08:49:44;;;;;;;7.15;1.90;;;;;;;20.70;42.62;102855.97;5128345;27;21282;-71
2023/05/19 08:52:15;;;;;;;4.40;2.10;;;;;;;20.71;42.57;102857.63;5122934;27;20040;-69
2023/05/19 08:55:03;;;;;;;2.65;1.48;;;;;;;20.70;42.42;102855.97;5127599;27;20131;-70
2023/05/19 08:57:29;;;;;;;2.05;1.70;;;;;;;20.66;42.27;102860.69;5117180;27;20166;-68
2023/05/19 08:59:56;;;;;;;3.50;1.50;;;;;;;20.67;42.64;102851.78;5122240;27;20038;-70
2023/05/19 09:02:22;;;;;;;4.00;1.77;;;;;;;20.67;42.54;102849.13;5122462;27;20215;-70
2023/05/19 09:04:48;;;;;;;3.97;1.60;;;;;;;20.65;42.29;102843.13;5116896;27;20039;-70
2023/05/19 09:07:14;;;;;;;4.20;1.92;;;;;;;20.70;42.33;102850.66;5119017;27;20046;-71
2023/05/19 09:09:42;;;;;;;2.15;1.60;;;;;;;20.70;42.39;102848.84;5120916;27;20076;-71
2023/05/19 09:12:12;;;;;;;4.03;1.70;;;;;;;20.71;42.29;102836.44;5122217;27;20038;-71
2023/05/19 09:14:37;;;;;;;2.42;1.67;;;;;;;20.72;42.47;102840.75;5119302;27;20397;-72
2023/05/19 09:17:03;;;;;;;5.18;2.28;;;;;;;20.72;42.40;102846.06;5120220;27;20069;-72
2023/05/19 09:19:29;;;;;;;3.58;1.65;;;;;;;20.71;42.27;102837.28;5119262;27;20032;-72
2023/05/19 09:21:59;;;;;;;2.25;1.67;;;;;;;20.72;42.10;102832.81;5124787;27;20496;-71
2023/05/19 09:24:26;;;;;;;2.67;1.98;;;;;;;20.70;42.34;102832.13;5120107;27;20055;-72
2023/05/19 09:26:55;;;;;;;2.42;1.80;;;;;;;20.71;42.26;102836.44;5122928;27;20656;-71
2023/05/19 09:29:21;;;;;;;3.20;1.48;;;;;;;20.70;42.19;102840.06;5117917;27;20044;-71
2023/05/19 09:32:03;;;;;;;4.25;2.20;;;;;;;20.72;42.26;102827.53;5121220;27;20035;-71
2023/05/19 09:34:29;;;;;;;2.88;2.00;;;;;;;20.71;42.09;102828.50;5120313;27;20126;-70
2023/05/19 09:36:56;;;;;;;2.72;1.98;;;;;;;20.71;42.39;102831.16;5121553;27;20043;-69
2023/05/19 09:39:22;;;;;;;3.80;1.85;;;;;;;20.71;42.24;102818.75;5116210;27;20071;-70
2023/05/19 09:41:58;;;;;;;2.40;1.63;;;;;;;20.72;42.04;102809.00;5116476;27;20085;-71
2023/05/19 09:44:29;;;;;;;5.80;1.70;;;;;;;20.71;42.10;102808.16;5120129;27;20057;-70
2023/05/19 09:46:55;;;;;;;2.80;1.70;;;;;;;20.73;42.11;102805.38;5117206;27;20077;-71
2023/05/19 09:49:31;;;;;;;3.33;1.73;;;;;;;20.71;42.13;102802.03;5120247;27;20060;-71
2023/05/19 09:51:58;;;;;;;3.75;1.73;;;;;;;20.70;42.06;102806.50;5114518;27;20111;-70
2023/05/19 09:54:28;;;;;;;4.68;2.13;;;;;;;20.71;42.14;102802.88;5120180;27;20073;-71
2023/05/19 09:57:02;;;;;;;1.92;1.55;;;;;;;20.72;42.20;102803.69;5120276;27;20047;-71
2023/05/19 09:59:28;;;;;;;1.60;1.35;;;;;;;20.72;42.27;102798.41;5122290;27;20042;-71
2023/05/19 10:01:55;;;;;;;3.25;1.60;;;;;;;20.72;42.17;102801.06;5118995;27;20057;-69
2023/05/19 10:04:23;;;;;;;3.83;1.88;;;;;;;20.73;42.09;102808.03;5121856;27;20034;-70
2023/05/19 10:06:53;;;;;;;2.20;1.77;;;;;;;20.72;42.11;102803.69;5117476;27;20481;-69
2023/05/19 10:09:26;;;;;;;3.53;2.30;;;;;;;20.67;42.07;102796.19;5124893;27;20063;-69
2023/05/19 10:11:52;;;;;;;2.08;1.48;;;;;;;20.69;42.40;102796.88;5117196;27;20037;-70
2023/05/19 10:14:28;;;;;;;2.83;1.80;;;;;;;20.70;42.42;102800.34;5118948;27;20035;-70
2023/05/19 10:16:55;;;;;;;4.53;1.35;;;;;;;20.69;42.10;102794.22;5118161;28;20137;-71
2023/05/19 10:19:23;;;;;;;1.50;1.40;;;;;;;20.66;42.24;102783.91;5119393;27;20032;-70
2023/05/19 10:21:50;;;;;;;2.65;2.13;;;;;;;20.69;42.05;102796.03;5121676;28;20525;-71
2023/05/19 10:24:16;;;;;;;2.03;1.58;;;;;;;20.70;42.28;102795.91;5122722;28;20047;-70
2023/05/19 10:27:05;;;;;;;3.63;1.88;;;;;;;20.71;42.10;102794.09;5115445;28;20042;-70
2023/05/19 10:29:38;;;;;;;1.73;1.40;;;;;;;20.70;42.19;102784.47;5120261;28;20050;-72
2023/05/19 10:32:14;;;;;;;3.25;1.73;;;;;;;20.64;42.07;102766.47;5118417;27;20046;-71
2023/05/19 10:35:07;;;;;;;2.72;1.65;;;;;;;20.72;42.17;102786.00;5120953;27;20035;-74
2023/05/19 10:37:57;;;;;;;1.65;1.50;;;;;;;20.72;42.33;102779.88;5121786;28;20035;-72
2023/05/19 10:40:23;;;;;;;3.53;1.90;;;;;;;20.71;42.10;102776.38;5121089;28;20071;-72
2023/05/19 10:42:54;;;;;;;2.40;1.80;;;;;;;20.70;42.06;102782.66;5119288;27;20110;-72
2023/05/19 10:45:22;;;;;;;2.95;1.85;;;;;;;20.70;42.39;102771.25;5119452;28;20040;-72
2023/05/19 10:47:50;;;;;;;2.95;1.80;;;;;;;20.67;42.39;102759.13;5118222;28;20055;-73
2023/05/19 10:50:16;;;;;;;3.50;1.85;;;;;;;20.68;42.41;102766.09;5119969;27;20043;-71
2023/05/19 10:52:43;;;;;;;2.13;1.88;;;;;;;20.71;42.36;102775.56;5124687;27;20070;-71
2023/05/19 10:55:16;;;;;;;2.22;1.70;;;;;;;20.70;42.12;102773.88;5124024;27;20039;-70
2023/05/19 10:57:57;;;;;;;1.55;1.45;;;;;;;20.70;42.29;102771.25;5127064;27;20042;-70
2023/05/19 11:00:27;;;;;;;2.35;1.83;;;;;;;20.70;42.18;102774.72;5125422;27;20030;-70
2023/05/19 11:02:56;;;;;;;3.40;2.13;;;;;;;20.71;42.44;102764.97;5120209;27;20035;-70
2023/05/19 11:05:28;;;;;;;1.58;1.48;;;;;;;20.71;42.40;102757.84;5124849;27;20039;-70
2023/05/19 11:08:01;;;;;;;2.00;1.60;;;;;;;20.70;42.38;102761.47;5124864;27;20039;-71
2023/05/19 11:10:26;;;;;;;2.47;1.67;;;;;;;20.70;42.20;102755.34;5121079;27;20032;-70
2023/05/19 11:12:52;;;;;;;2.55;1.83;;;;;;;20.69;42.33;102754.53;5119298;27;20377;-71
2023/05/19 11:15:17;;;;;;;4.38;1.90;;;;;;;20.71;42.46;102757.84;5130323;27;20050;-70
2023/05/19 11:17:47;;;;;;;3.08;1.70;;;;;;;20.70;42.32;102753.53;5122183;27;20054;-71
2023/05/19 11:20:23;;;;;;;;;;;;;;;20.63;42.40;102747.09;5127998;27;20080;-70
2023/05/19 11:23:09;;;;;;;1.70;1.60;;;;;;;20.69;42.30;102761.63;5120329;27;19994;-70
2023/05/19 11:25:42;;;;;;;2.83;1.55;;;;;;;20.68;42.46;102750.19;5119105;27;20035;-70
2023/05/19 11:28:10;;;;;;;1.92;1.75;;;;;;;20.69;42.35;102754.53;5124133;27;20042;-71
2023/05/19 11:30:37;;;;;;;2.63;1.92;;;;;;;20.67;42.38;102748.53;5119973;27;20040;-71